Hyundai New York — 9V2196 — position and weather

sailwx.info

Track history (hours):
 
Tides and Currents Weather Stations Pressure Air Temp Water Temp Dewpoint Dewpoint Depression Visibility Wind Speed Wind Dir Waves Ship Positions

Hyundai New York

Last reported at 2018-Feb-25 03:32 UTC. Time now 2018-Feb-25 09:43 UTC.
Position N 31°33' E 122°42'.

Length 293 m; draft 8.7 m.

Type: Ship (hazmat cat A). MMSI: 566999000.

Date/timePositionNaut miles runAvg speedWind from/ knotsBaromVisibWave heightAir tempDewpointWater temp
2018-Feb-25 03:32N 31°33' E 122°42'0 0.0
2018-Feb-25 03:29N 31°33' E 122°42'  
2018-Feb-22 19:58N 31°23' E 121°34'4 7.4
2018-Feb-22 19:23N 31°21' E 121°39'511.4
2018-Feb-22 18:55N 31°19' E 121°44'511.1
2018-Feb-22 18:30N 31°17' E 121°49'5 9.5
2018-Feb-22 18:00N 31°16' E 121°55'1710.2
2018-Feb-22 16:19N 31°09' E 122°13'3 8.0
2018-Feb-22 16:00N 31°08' E 122°16'5 9.2
2018-Feb-22 15:30N 31°06' E 122°21'5 9.5
2018-Feb-22 15:00N 31°07' E 122°26'6 7.7
2018-Feb-22 14:16N 31°07' E 122°33'3 7.1
2018-Feb-22 13:48N 31°06' E 122°37'  
Track history (hours):
 
Tides and Currents Weather Stations Pressure Air Temp Water Temp Dewpoint Dewpoint Depression Visibility Wind Speed Wind Dir Waves Ship Positions

Hyundai New York

Last reported at 2018-Feb-25 03:32 UTC. Time now 2018-Feb-25 09:43 UTC.
Position N 31°33' E 122°42'.

Length 293 m; draft 8.7 m.

Type: Ship (hazmat cat A). MMSI: 566999000.

Date/timePositionNaut miles runAvg speedWind from/ knotsBaromVisibWave heightAir tempDewpointWater temp
2018-Feb-25 03:32N 31°33' E 122°42'0 0.0
2018-Feb-25 03:29N 31°33' E 122°42'  
2018-Feb-22 19:58N 31°23' E 121°34'4 7.4
2018-Feb-22 19:23N 31°21' E 121°39'511.4
2018-Feb-22 18:55N 31°19' E 121°44'511.1
2018-Feb-22 18:30N 31°17' E 121°49'5 9.5
2018-Feb-22 18:00N 31°16' E 121°55'1710.2
2018-Feb-22 16:19N 31°09' E 122°13'3 8.0
2018-Feb-22 16:00N 31°08' E 122°16'5 9.2
2018-Feb-22 15:30N 31°06' E 122°21'5 9.5
2018-Feb-22 15:00N 31°07' E 122°26'6 7.7
2018-Feb-22 14:16N 31°07' E 122°33'3 7.1
2018-Feb-22 13:48N 31°06' E 122°37'  

Dump ship's entire track history